Time;durP1;ratioP1;P1;durP2;ratioP2;P2;SDS_P1;SDS_P2;PMS_P1;PMS_P2;Temp;Humidity;BMP_temperature;BMP_pressure;BME280_temperature;BME280_humidity;BME280_pressure;Samples;Min_cycle;Max_cycle;Signal;HPM_P1;HPM_P2
2023/03/03 00:01:27;;;;;;;53.83;41.50;;;-0.40;99.90;;;;;;4987014;28;20034;-74
2023/03/03 00:03:53;;;;;;;62.58;44.00;;;-0.50;99.90;;;;;;4985631;28;20407;-75
2023/03/03 00:06:19;;;;;;;53.33;39.63;;;-0.50;99.90;;;;;;4986830;28;20118;-75
2023/03/03 00:08:45;;;;;;;65.63;49.63;;;-0.60;99.90;;;;;;4969293;28;20026;-75
2023/03/03 00:11:12;;;;;;;58.40;44.40;;;-0.60;99.90;;;;;;4986814;28;20031;-75
2023/03/03 00:13:54;;;;;;;57.10;43.28;;;-0.60;99.90;;;;;;4986819;28;20027;-75
2023/03/03 00:16:39;;;;;;;106.53;74.70;;;-0.70;99.90;;;;;;4985684;28;20062;-74
2023/03/03 00:19:18;;;;;;;75.45;53.20;;;-0.70;99.90;;;;;;4986606;28;20046;-74
2023/03/03 00:21:49;;;;;;;73.93;52.03;;;-0.80;99.90;;;;;;4986915;28;20046;-74
2023/03/03 00:24:42;;;;;;;84.45;57.72;;;-0.10;99.90;;;;;;4985173;28;20039;-75
2023/03/03 00:27:19;;;;;;;58.58;49.03;;;-0.90;99.90;;;;;;4988320;28;20049;-75
2023/03/03 00:29:53;;;;;;;67.07;49.95;;;-0.90;99.90;;;;;;4989281;28;20035;-75
2023/03/03 00:32:23;;;;;;;84.82;57.92;;;-0.90;99.90;;;;;;4990203;28;20035;-75
2023/03/03 00:34:51;;;;;;;108.68;66.20;;;-0.90;99.90;;;;;;4973016;28;20041;-75
2023/03/03 00:37:29;;;;;;;58.13;43.03;;;-0.90;99.90;;;;;;4989987;28;20039;-75
2023/03/03 00:40:39;;;;;;;58.03;43.45;;;-0.90;99.90;;;;;;4990443;28;20034;-75
2023/03/03 00:43:20;;;;;;;69.75;53.50;;;-0.90;99.90;;;;;;4991093;28;20038;-75
2023/03/03 00:45:49;;;;;;;75.82;55.20;;;-1.00;99.90;;;;;;4991233;28;20034;-75
2023/03/03 00:48:34;;;;;;;86.82;62.15;;;-1.00;99.90;;;;;;4996976;28;20046;-74
2023/03/03 00:51:09;;;;;;;77.80;55.65;;;-1.00;99.90;;;;;;4988491;28;20027;-75
2023/03/03 00:53:35;;;;;;;61.03;48.67;;;-1.00;99.90;;;;;;4988887;28;20062;-75
2023/03/03 00:56:01;;;;;;;114.38;78.43;;;-1.10;99.90;;;;;;4988561;28;20093;-75
2023/03/03 00:58:28;;;;;;;41.40;34.90;;;-1.10;99.90;;;;;;4989473;28;20039;-75
2023/03/03 01:00:57;;;;;;;68.60;52.20;;;-1.10;99.90;;;;;;4988692;28;20059;-75
2023/03/03 01:03:31;;;;;;;69.82;52.70;;;-1.00;99.90;;;;;;4988456;28;20095;-75
2023/03/03 01:05:57;;;;;;;137.50;91.80;;;-0.70;99.90;;;;;;4988323;28;20034;-75
2023/03/03 01:08:23;;;;;;;68.65;48.42;;;-0.50;99.90;;;;;;4987912;28;20121;-75
2023/03/03 01:10:52;;;;;;;82.88;63.75;;;-0.30;99.90;;;;;;4989746;28;20022;-74
2023/03/03 01:13:20;;;;;;;52.40;39.53;;;-0.10;99.90;;;;;;4989703;28;20031;-75
2023/03/03 01:15:46;;;;;;;58.90;44.50;;;0.10;99.90;;;;;;4988553;28;20057;-75
2023/03/03 01:18:12;;;;;;;58.58;38.33;;;0.20;99.90;;;;;;4989626;28;20050;-74
2023/03/03 01:20:39;;;;;;;53.90;41.45;;;0.30;99.90;;;;;;4988078;28;20084;-75
2023/03/03 01:23:05;;;;;;;49.95;40.20;;;0.40;99.90;;;;;;4987965;28;20035;-75
2023/03/03 01:25:31;;;;;;;56.92;40.42;;;0.40;99.90;;;;;;4956147;28;20043;-74
2023/03/03 01:27:57;;;;;;;54.97;38.67;;;0.50;99.90;;;;;;4989417;28;20082;-74
2023/03/03 01:30:24;;;;;;;54.95;39.88;;;0.40;99.90;;;;;;4989567;28;20031;-74
2023/03/03 01:32:50;;;;;;;58.95;40.30;;;0.40;99.90;;;;;;4971604;28;20422;-74
2023/03/03 01:35:16;;;;;;;52.42;42.22;;;0.40;99.90;;;;;;4988013;28;20042;-75
2023/03/03 01:37:41;;;;;;;43.30;33.83;;;0.40;99.90;;;;;;4988941;28;20023;-75
2023/03/03 01:40:14;;;;;;;59.65;42.40;;;0.40;99.90;;;;;;4987854;28;20037;-74
2023/03/03 01:42:40;;;;;;;43.67;35.55;;;0.40;99.90;;;;;;4987880;28;20391;-74
2023/03/03 01:45:29;;;;;;;53.60;38.22;;;0.40;99.90;;;;;;4971737;28;20046;-75
2023/03/03 01:48:05;;;;;;;50.90;36.42;;;0.40;99.90;;;;;;4988922;28;20035;-74
2023/03/03 01:50:39;;;;;;;53.60;39.72;;;0.40;99.90;;;;;;4989018;28;20027;-75
2023/03/03 01:53:14;;;;;;;47.40;38.08;;;0.40;99.90;;;;;;4987849;28;20030;-74
2023/03/03 01:55:41;;;;;;;48.25;33.92;;;0.40;99.90;;;;;;4971550;28;20085;-75
2023/03/03 01:58:13;;;;;;;52.38;36.17;;;0.40;99.90;;;;;;4987424;28;20030;-74
2023/03/03 02:00:42;;;;;;;50.33;37.80;;;0.30;99.90;;;;;;4987505;28;20042;-74
2023/03/03 02:03:09;;;;;;;54.63;38.92;;;0.30;99.90;;;;;;4971314;28;20106;-74
2023/03/03 02:05:37;;;;;;;45.70;36.28;;;0.30;99.90;;;;;;4988388;28;20031;-75
2023/03/03 02:08:03;;;;;;;58.85;37.15;;;0.30;99.90;;;;;;4987477;28;20031;-74
2023/03/03 02:10:30;;;;;;;65.03;39.10;;;0.30;99.90;;;;;;4987358;28;20035;-74
2023/03/03 02:12:57;;;;;;;47.70;36.08;;;0.40;99.90;;;;;;4988154;28;20034;-75
2023/03/03 02:15:30;;;;;;;51.05;38.25;;;0.30;99.90;;;;;;4988503;28;20054;-74
2023/03/03 02:18:00;;;;;;;43.90;27.65;;;0.30;99.90;;;;;;4969162;28;20039;-74
2023/03/03 02:20:50;;;;;;;60.40;35.83;;;0.10;99.90;;;;;;4967883;29;20030;-74
2023/03/03 02:23:31;;;;;;;56.42;38.65;;;0.00;99.90;;;;;;4967631;29;20058;-74
2023/03/03 02:25:57;;;;;;;66.75;37.55;;;-0.10;99.90;;;;;;4967607;29;20476;-75
2023/03/03 02:28:28;;;;;;;41.67;35.97;;;0.10;99.90;;;;;;4967600;29;20030;-74
2023/03/03 02:30:55;;;;;;;61.60;41.55;;;-0.10;99.90;;;;;;4976995;28;20023;-75
2023/03/03 02:33:23;;;;;;;55.35;40.42;;;0.00;99.90;;;;;;4967488;28;20023;-75
2023/03/03 02:35:50;;;;;;;51.88;36.25;;;0.00;99.90;;;;;;4983655;28;20523;-74
2023/03/03 02:38:37;;;;;;;48.85;34.25;;;0.10;99.90;;;;;;4967643;29;20117;-74
2023/03/03 02:41:33;;;;;;;57.30;38.38;;;0.00;99.90;;;;;;4983566;28;20031;-74
2023/03/03 02:44:05;;;;;;;55.85;36.45;;;0.10;99.90;;;;;;4981752;28;20039;-75
2023/03/03 02:46:34;;;;;;;54.47;36.55;;;0.10;99.90;;;;;;4983911;28;20030;-75
2023/03/03 02:49:01;;;;;;;55.25;36.88;;;0.10;99.90;;;;;;4970442;28;20023;-75
2023/03/03 02:51:27;;;;;;;39.53;32.53;;;0.10;99.90;;;;;;4986045;28;20023;-74
2023/03/03 02:53:53;;;;;;;45.70;30.42;;;0.00;99.90;;;;;;4988088;28;20030;-74
2023/03/03 02:56:18;;;;;;;57.08;37.90;;;-0.10;99.90;;;;;;4986373;28;20030;-74
2023/03/03 02:58:44;;;;;;;46.85;32.20;;;-0.10;99.90;;;;;;4985868;28;20404;-74
2023/03/03 03:01:11;;;;;;;54.40;36.78;;;-0.10;99.90;;;;;;4967130;29;20118;-74
2023/03/03 03:03:38;;;;;;;43.15;35.95;;;-0.10;99.90;;;;;;4983137;28;20081;-75
2023/03/03 03:06:05;;;;;;;50.08;35.97;;;-0.10;99.90;;;;;;4966866;28;20044;-74
2023/03/03 03:08:31;;;;;;;53.95;33.80;;;0.00;99.90;;;;;;4967059;29;20032;-74
2023/03/03 03:10:57;;;;;;;44.67;31.90;;;0.20;99.90;;;;;;4968179;28;20031;-74
2023/03/03 03:13:26;;;;;;;45.47;34.78;;;0.10;99.90;;;;;;4971943;28;20053;-75
2023/03/03 03:15:53;;;;;;;47.83;34.70;;;0.20;99.90;;;;;;4986288;28;20034;-74
2023/03/03 03:18:19;;;;;;;51.72;33.50;;;0.20;99.90;;;;;;4986055;28;20042;-74
2023/03/03 03:20:45;;;;;;;42.30;30.52;;;0.20;99.90;;;;;;4986155;28;20019;-74
2023/03/03 03:23:11;;;;;;;46.80;34.88;;;0.20;99.90;;;;;;4985781;28;20034;-74
2023/03/03 03:25:44;;;;;;;55.80;34.75;;;0.10;99.90;;;;;;4985930;28;20027;-75
2023/03/03 03:28:16;;;;;;;49.17;34.80;;;0.10;99.90;;;;;;4985743;28;20086;-75
2023/03/03 03:30:44;;;;;;;51.25;36.42;;;0.10;99.90;;;;;;4985995;28;20023;-74
2023/03/03 03:33:10;;;;;;;43.75;34.95;;;0.10;99.90;;;;;;4970247;28;20189;-74
2023/03/03 03:35:37;;;;;;;44.75;33.33;;;0.20;99.90;;;;;;4985742;28;20027;-75
2023/03/03 03:38:03;;;;;;;46.58;32.38;;;0.10;99.90;;;;;;4969749;28;20041;-75
2023/03/03 03:40:29;;;;;;;46.95;31.83;;;0.10;99.90;;;;;;4985422;28;20490;-75
2023/03/03 03:42:55;;;;;;;51.33;31.05;;;0.10;99.90;;;;;;4985775;28;20106;-74
2023/03/03 03:45:22;;;;;;;48.58;35.88;;;0.20;99.90;;;;;;4985745;28;20030;-74
2023/03/03 03:47:49;;;;;;;42.30;29.60;;;0.10;99.90;;;;;;4985978;28;20027;-74
2023/03/03 03:50:15;;;;;;;43.83;32.58;;;0.20;99.90;;;;;;4985727;28;20045;-74
2023/03/03 03:52:42;;;;;;;46.30;28.80;;;0.20;99.90;;;;;;4985640;28;20038;-74
2023/03/03 03:55:10;;;;;;;38.92;31.25;;;0.20;99.90;;;;;;4953910;28;20117;-74
2023/03/03 03:57:37;;;;;;;45.58;31.83;;;0.10;99.90;;;;;;4969730;28;20110;-74
2023/03/03 04:00:07;;;;;;;56.03;33.25;;;0.20;99.90;;;;;;4985585;28;20051;-74
2023/03/03 04:02:39;;;;;;;45.42;31.77;;;0.10;99.90;;;;;;4987513;28;20043;-74
2023/03/03 04:05:08;;;;;;;52.72;32.28;;;0.10;99.90;;;;;;4989649;28;20034;-74
2023/03/03 04:07:35;;;;;;;46.72;29.45;;;0.10;99.90;;;;;;4989427;28;20034;-74
2023/03/03 04:10:01;;;;;;;43.22;31.60;;;0.10;99.90;;;;;;4989156;28;20019;-74
2023/03/03 04:12:27;;;;;;;50.40;34.90;;;0.10;99.90;;;;;;4973461;28;20031;-74
2023/03/03 04:14:53;;;;;;;42.72;29.63;;;0.10;99.90;;;;;;4989437;28;20035;-75
2023/03/03 04:17:21;;;;;;;39.70;29.27;;;0.20;99.90;;;;;;4973359;28;20045;-74
2023/03/03 04:19:47;;;;;;;47.40;31.17;;;0.10;99.90;;;;;;4989307;28;20534;-74
2023/03/03 04:22:14;;;;;;;42.25;30.98;;;0.10;99.90;;;;;;4988992;28;20041;-74
2023/03/03 04:24:40;;;;;;;53.80;32.92;;;0.00;99.90;;;;;;4989090;28;20038;-74
2023/03/03 04:27:08;;;;;;;48.90;32.00;;;0.00;99.90;;;;;;4989384;28;20033;-74
2023/03/03 04:29:35;;;;;;;41.50;31.45;;;0.10;99.90;;;;;;4989168;28;20034;-74
2023/03/03 04:32:02;;;;;;;51.15;37.10;;;0.00;99.90;;;;;;4989051;28;20034;-74
2023/03/03 04:34:28;;;;;;;53.08;34.28;;;0.00;99.90;;;;;;4989278;28;20039;-74
2023/03/03 04:36:54;;;;;;;47.42;32.10;;;0.00;99.90;;;;;;4995366;28;20030;-74
2023/03/03 04:39:20;;;;;;;48.33;33.83;;;0.00;99.90;;;;;;4989002;28;20027;-74
2023/03/03 04:41:46;;;;;;;48.00;31.45;;;0.00;99.90;;;;;;4989022;28;20037;-74
2023/03/03 04:44:12;;;;;;;49.30;32.60;;;0.10;99.90;;;;;;4988803;28;20085;-74
2023/03/03 04:46:37;;;;;;;42.70;27.52;;;0.10;99.90;;;;;;4988900;28;20027;-75
2023/03/03 04:49:06;;;;;;;48.80;32.17;;;0.00;99.90;;;;;;4988769;28;20114;-74
2023/03/03 04:51:33;;;;;;;42.83;32.33;;;0.00;99.90;;;;;;4988716;28;20034;-74
2023/03/03 04:53:59;;;;;;;46.95;31.17;;;0.10;99.90;;;;;;4989050;28;20192;-75
2023/03/03 04:56:25;;;;;;;54.60;31.95;;;0.50;99.90;;;;;;4988950;28;20506;-75
2023/03/03 04:58:51;;;;;;;44.63;30.20;;;0.00;99.90;;;;;;4972033;28;20051;-75
2023/03/03 05:01:18;;;;;;;47.80;30.88;;;0.00;99.90;;;;;;4988922;28;20050;-74
2023/03/03 05:03:45;;;;;;;48.42;33.75;;;0.10;99.90;;;;;;4988643;28;20047;-74
2023/03/03 05:06:11;;;;;;;49.95;33.75;;;0.10;99.90;;;;;;4988167;28;20070;-74
2023/03/03 05:08:36;;;;;;;44.08;30.83;;;0.10;99.90;;;;;;4989913;28;20030;-74
2023/03/03 05:11:03;;;;;;;47.22;32.72;;;0.20;99.90;;;;;;4989685;28;20062;-75
2023/03/03 05:13:29;;;;;;;41.50;30.67;;;0.20;99.90;;;;;;4989068;28;20041;-74
2023/03/03 05:15:56;;;;;;;40.22;30.48;;;0.20;99.90;;;;;;4989663;28;20046;-74
2023/03/03 05:18:23;;;;;;;44.10;33.67;;;0.30;99.90;;;;;;4988314;28;20110;-75
2023/03/03 05:20:50;;;;;;;44.47;31.23;;;0.30;99.90;;;;;;4989258;28;20033;-74
2023/03/03 05:23:16;;;;;;;45.42;32.30;;;0.40;99.90;;;;;;4988241;28;20031;-75
2023/03/03 05:25:42;;;;;;;47.72;33.35;;;0.30;99.90;;;;;;4988038;28;20059;-74
2023/03/03 05:28:09;;;;;;;43.83;30.35;;;0.30;99.90;;;;;;4989348;28;20019;-75
2023/03/03 05:30:36;;;;;;;53.63;33.50;;;0.30;99.90;;;;;;4972329;28;20042;-74
2023/03/03 05:33:03;;;;;;;40.40;31.88;;;0.30;99.90;;;;;;4989021;28;20023;-74
2023/03/03 05:35:29;;;;;;;40.58;31.65;;;0.30;99.90;;;;;;4989202;28;20062;-74
2023/03/03 05:37:57;;;;;;;41.88;31.88;;;0.20;99.90;;;;;;4988065;28;20050;-74
2023/03/03 05:40:24;;;;;;;45.85;33.25;;;0.30;99.90;;;;;;4989147;28;20113;-74
2023/03/03 05:42:50;;;;;;;49.20;34.28;;;0.30;99.90;;;;;;4989134;28;20031;-75
2023/03/03 05:45:20;;;;;;;44.20;33.05;;;0.30;99.90;;;;;;4987707;28;20502;-75
2023/03/03 05:47:47;;;;;;;43.03;35.03;;;0.40;99.90;;;;;;4989195;28;20034;-74
2023/03/03 05:50:13;;;;;;;45.00;31.90;;;0.40;99.90;;;;;;4989210;28;20376;-75
2023/03/03 05:52:39;;;;;;;44.42;31.13;;;0.30;99.90;;;;;;4988905;28;20035;-75
2023/03/03 05:55:05;;;;;;;46.53;33.38;;;0.40;99.90;;;;;;4985276;28;20077;-75
2023/03/03 05:57:31;;;;;;;41.63;29.05;;;0.30;99.90;;;;;;4970827;28;20455;-74
2023/03/03 05:59:57;;;;;;;46.85;29.65;;;0.30;99.90;;;;;;4987188;28;20047;-74
2023/03/03 06:02:22;;;;;;;42.15;32.20;;;0.30;99.90;;;;;;4985025;28;20066;-75
2023/03/03 06:04:48;;;;;;;44.90;32.10;;;0.30;99.90;;;;;;4970168;28;20073;-75
2023/03/03 06:07:14;;;;;;;39.45;33.45;;;0.40;99.90;;;;;;4964813;28;20054;-75
2023/03/03 06:09:40;;;;;;;42.83;32.70;;;0.40;99.90;;;;;;4986632;28;20034;-73
2023/03/03 06:12:06;;;;;;;42.75;35.15;;;0.40;99.90;;;;;;4987413;28;20027;-74
2023/03/03 06:14:32;;;;;;;43.47;33.63;;;0.40;99.90;;;;;;4952246;29;20036;-74
2023/03/03 06:16:58;;;;;;;43.17;34.45;;;0.40;99.90;;;;;;4969184;28;20058;-74
2023/03/03 06:19:24;;;;;;;40.60;33.20;;;0.50;99.90;;;;;;4969021;28;20035;-74
2023/03/03 06:21:50;;;;;;;38.92;32.70;;;0.40;99.90;;;;;;4967925;29;20091;-74
2023/03/03 06:24:15;;;;;;;46.13;31.83;;;0.50;99.90;;;;;;4968878;28;20039;-74
2023/03/03 06:26:41;;;;;;;43.22;32.38;;;0.50;99.90;;;;;;4986835;28;20054;-74
2023/03/03 06:29:07;;;;;;;39.05;31.33;;;0.50;99.90;;;;;;4987060;28;20035;-74
2023/03/03 06:31:34;;;;;;;36.90;31.10;;;0.50;99.90;;;;;;4987595;28;20031;-74
2023/03/03 06:34:00;;;;;;;40.22;30.15;;;0.60;99.90;;;;;;4986586;28;20043;-74
2023/03/03 06:36:26;;;;;;;38.08;30.63;;;0.50;99.90;;;;;;4986499;28;20449;-74
2023/03/03 06:38:52;;;;;;;40.95;31.75;;;0.50;99.90;;;;;;4987501;28;20042;-74
2023/03/03 06:41:18;;;;;;;44.67;33.33;;;0.60;99.90;;;;;;4987439;28;20034;-74
2023/03/03 06:43:44;;;;;;;42.60;31.52;;;0.60;99.90;;;;;;4987976;28;20035;-74
2023/03/03 06:46:10;;;;;;;46.60;31.63;;;0.60;99.90;;;;;;4987965;28;20037;-73
2023/03/03 06:48:35;;;;;;;40.95;30.77;;;0.60;99.90;;;;;;4987900;28;20042;-73
2023/03/03 06:51:08;;;;;;;40.75;30.75;;;0.60;99.90;;;;;;4985291;28;20049;-74
2023/03/03 06:53:34;;;;;;;48.80;33.15;;;0.50;99.90;;;;;;4987719;28;20062;-74
2023/03/03 06:56:00;;;;;;;49.17;34.10;;;0.50;99.90;;;;;;4982947;28;20035;-74
2023/03/03 06:58:28;;;;;;;44.88;31.60;;;0.40;99.90;;;;;;4982132;28;20397;-74
2023/03/03 07:00:58;;;;;;;37.92;33.30;;;0.50;99.90;;;;;;4986813;28;20070;-74
2023/03/03 07:03:31;;;;;;;41.20;32.10;;;0.50;99.90;;;;;;4986982;28;20034;-75
2023/03/03 07:05:56;;;;;;;49.08;34.70;;;0.50;99.90;;;;;;4987134;28;20045;-75
2023/03/03 07:08:23;;;;;;;47.72;35.05;;;0.60;99.90;;;;;;4969423;28;20114;-74
2023/03/03 07:10:51;;;;;;;41.58;30.92;;;0.70;99.90;;;;;;4986706;28;20029;-74
2023/03/03 07:13:17;;;;;;;41.50;31.08;;;0.70;99.90;;;;;;4986950;28;20031;-75
2023/03/03 07:15:43;;;;;;;53.65;35.75;;;0.70;99.90;;;;;;4985600;28;20061;-75
2023/03/03 07:18:24;;;;;;;46.50;30.73;;;0.80;99.90;;;;;;4985508;28;20042;-74
2023/03/03 07:20:49;;;;;;;42.58;33.70;;;0.80;99.90;;;;;;4985527;28;20031;-74
2023/03/03 07:23:34;;;;;;;41.83;31.40;;;0.80;99.90;;;;;;4985577;28;20039;-74
2023/03/03 07:26:00;;;;;;;42.95;33.17;;;0.80;99.90;;;;;;4985351;28;20031;-74
2023/03/03 07:28:26;;;;;;;37.60;29.52;;;0.80;99.90;;;;;;4986809;28;20021;-74
2023/03/03 07:30:54;;;;;;;40.67;29.92;;;1.00;99.90;;;;;;4980367;28;20087;-74
2023/03/03 07:33:27;;;;;;;32.50;27.70;;;0.90;99.90;;;;;;4984857;28;20037;-73
2023/03/03 07:35:55;;;;;;;35.08;31.40;;;1.00;99.90;;;;;;4983998;28;20026;-74
2023/03/03 07:38:41;;;;;;;39.28;29.55;;;1.00;99.90;;;;;;4986697;28;20027;-74
2023/03/03 07:41:15;;;;;;;41.78;27.23;;;1.00;99.90;;;;;;4985847;28;20687;-75
2023/03/03 07:43:49;;;;;;;35.45;28.05;;;1.10;99.90;;;;;;4985167;28;20090;-75
2023/03/03 07:46:23;;;;;;;46.70;29.45;;;1.10;99.90;;;;;;4986066;28;20457;-74
2023/03/03 07:48:50;;;;;;;34.97;28.38;;;1.10;99.90;;;;;;4979442;28;20476;-74
2023/03/03 07:51:25;;;;;;;36.13;26.95;;;1.10;99.90;;;;;;4986373;28;20078;-74
2023/03/03 07:54:13;;;;;;;39.13;30.55;;;1.10;99.90;;;;;;4986466;28;20038;-74
2023/03/03 07:56:39;;;;;;;35.33;28.30;;;1.10;99.90;;;;;;4984944;28;20039;-74
2023/03/03 07:59:20;;;;;;;47.95;30.67;;;1.10;99.90;;;;;;4985605;28;20078;-74
2023/03/03 08:01:48;;;;;;;39.90;29.00;;;1.20;99.90;;;;;;4983624;28;20041;-74
2023/03/03 08:04:16;;;;;;;39.70;27.73;;;1.30;99.90;;;;;;4985727;28;20492;-74
2023/03/03 08:06:48;;;;;;;37.75;27.98;;;1.30;99.90;;;;;;4986521;28;20061;-73
2023/03/03 08:09:17;;;;;;;35.30;26.70;;;1.30;99.90;;;;;;4986253;28;20054;-73
2023/03/03 08:11:54;;;;;;;39.15;29.95;;;1.30;99.90;;;;;;4968235;28;20039;-73
2023/03/03 08:14:34;;;;;;;39.28;27.15;;;1.40;99.90;;;;;;4985226;28;20058;-73
2023/03/03 08:17:01;;;;;;;39.40;27.45;;;1.40;99.90;;;;;;4986502;28;20097;-73
2023/03/03 08:19:29;;;;;;;41.90;28.25;;;1.50;99.90;;;;;;4986293;28;20034;-73
2023/03/03 08:22:02;;;;;;;37.90;29.00;;;1.50;99.90;;;;;;4969053;28;20039;-75
2023/03/03 08:24:28;;;;;;;38.78;28.50;;;1.60;99.90;;;;;;4986473;28;20033;-74
2023/03/03 08:26:54;;;;;;;37.63;24.40;;;1.70;99.90;;;;;;5001372;28;20090;-73
2023/03/03 08:29:19;;;;;;;39.42;29.33;;;1.70;99.90;;;;;;4969288;28;20054;-73
2023/03/03 08:31:47;;;;;;;33.03;27.50;;;1.70;99.90;;;;;;4969244;28;20027;-73
2023/03/03 08:34:12;;;;;;;34.17;28.60;;;1.70;99.90;;;;;;4986220;28;20046;-73
2023/03/03 08:36:39;;;;;;;35.35;27.10;;;1.70;99.90;;;;;;4985507;28;20034;-74
2023/03/03 08:39:18;;;;;;;36.28;25.05;;;1.70;99.90;;;;;;4985265;28;20041;-74
2023/03/03 08:41:45;;;;;;;26.13;21.23;;;1.80;99.90;;;;;;4985149;28;20078;-74
2023/03/03 08:44:10;;;;;;;35.67;24.38;;;1.90;99.90;;;;;;4986484;28;20035;-74
2023/03/03 08:46:36;;;;;;;27.70;22.98;;;2.00;99.90;;;;;;4981777;28;20087;-74
2023/03/03 08:49:03;;;;;;;29.02;25.38;;;2.10;99.90;;;;;;4988366;28;20094;-74
2023/03/03 08:51:28;;;;;;;26.48;22.63;;;2.10;99.90;;;;;;4988590;28;20058;-74
2023/03/03 08:53:54;;;;;;;27.25;21.92;;;2.20;99.90;;;;;;4973026;28;20043;-75
2023/03/03 08:56:20;;;;;;;32.22;21.00;;;2.30;99.90;;;;;;4989674;28;20035;-74
2023/03/03 08:58:49;;;;;;;29.67;22.67;;;2.30;99.90;;;;;;4988456;28;20041;-74
2023/03/03 09:01:17;;;;;;;27.05;21.95;;;2.30;99.90;;;;;;4989996;28;20069;-74
2023/03/03 09:03:44;;;;;;;27.63;18.63;;;2.40;99.90;;;;;;4989762;28;20047;-74
2023/03/03 09:06:10;;;;;;;23.27;19.13;;;2.30;99.90;;;;;;4987955;28;20023;-75
2023/03/03 09:08:36;;;;;;;25.40;20.75;;;2.40;99.90;;;;;;5004848;28;20098;-74
2023/03/03 09:11:13;;;;;;;32.53;22.13;;;2.20;99.90;;;;;;4989550;28;20035;-74
2023/03/03 09:13:39;;;;;;;20.58;18.17;;;2.20;99.90;;;;;;4989694;28;20118;-74
2023/03/03 09:16:14;;;;;;;20.77;16.45;;;2.10;99.90;;;;;;4989859;28;20042;-74
2023/03/03 09:18:41;;;;;;;23.80;19.42;;;2.20;99.90;;;;;;4989724;28;20435;-74
2023/03/03 09:21:31;;;;;;;22.05;19.67;;;2.20;99.90;;;;;;5004424;28;20086;-74
2023/03/03 09:23:58;;;;;;;27.15;23.17;;;2.30;99.90;;;;;;4989338;28;20039;-74
2023/03/03 09:26:29;;;;;;;24.55;19.05;;;2.40;99.90;;;;;;4989504;28;20038;-75
2023/03/03 09:29:13;;;;;;;27.50;19.00;;;2.40;99.90;;;;;;4988375;28;20061;-74
2023/03/03 09:31:46;;;;;;;22.20;18.80;;;2.40;99.90;;;;;;4989502;28;20030;-75
2023/03/03 09:34:26;;;;;;;23.58;17.38;;;2.50;99.90;;;;;;4989566;28;20043;-74
2023/03/03 09:36:53;;;;;;;25.65;18.98;;;2.60;99.90;;;;;;4987873;28;20468;-75
2023/03/03 09:39:26;;;;;;;24.17;18.77;;;2.60;99.90;;;;;;4986874;28;20054;-75
2023/03/03 09:42:07;;;;;;;26.50;19.27;;;2.70;99.90;;;;;;5001622;28;20062;-74
2023/03/03 09:45:07;;;;;;;24.75;19.63;;;2.90;99.90;;;;;;4989002;28;20062;-74
2023/03/03 09:47:59;;;;;;;21.77;17.35;;;3.00;99.90;;;;;;4987464;28;20037;-74
2023/03/03 09:50:42;;;;;;;25.95;19.73;;;3.00;99.90;;;;;;4987366;28;20050;-74
2023/03/03 09:53:15;;;;;;;27.27;20.75;;;3.00;99.90;;;;;;4987675;28;20057;-74
2023/03/03 09:55:50;;;;;;;28.13;20.92;;;3.10;99.90;;;;;;4987312;28;20098;-74
2023/03/03 09:58:56;;;;;;;23.48;19.15;;;3.10;99.90;;;;;;4986685;28;20038;-74
2023/03/03 10:01:37;;;;;;;28.17;19.35;;;3.10;99.90;;;;;;4988806;28;20098;-74
2023/03/03 10:04:08;;;;;;;28.75;20.15;;;2.90;99.90;;;;;;4988655;28;20030;-74
2023/03/03 10:06:59;;;;;;;24.83;18.55;;;3.10;99.90;;;;;;4987243;28;20086;-74
2023/03/03 10:09:37;;;;;;;26.95;22.77;;;3.10;99.90;;;;;;4987004;28;20034;-74
2023/03/03 10:12:16;;;;;;;25.00;18.77;;;3.10;99.90;;;;;;4988117;28;20498;-75
2023/03/03 10:15:08;;;;;;;32.42;22.20;;;3.30;99.90;;;;;;4987487;28;20034;-75
2023/03/03 10:17:52;;;;;;;21.73;19.25;;;3.50;99.90;;;;;;4981858;28;20042;-74
2023/03/03 10:20:36;;;;;;;23.63;17.67;;;3.70;99.90;;;;;;4986509;28;20027;-76
2023/03/03 10:23:22;;;;;;;22.63;19.58;;;3.80;99.90;;;;;;4987449;28;20395;-75
2023/03/03 10:25:53;;;;;;;30.20;22.02;;;3.90;99.90;;;;;;4988462;28;20023;-75
2023/03/03 10:28:45;;;;;;;20.27;18.00;;;3.90;99.90;;;;;;4988286;28;20062;-73
2023/03/03 10:31:53;;;;;;;24.25;19.05;;;3.80;99.90;;;;;;4988889;28;20065;-74
2023/03/03 10:34:18;;;;;;;26.05;20.15;;;3.90;99.90;;;;;;4981282;28;20495;-75
2023/03/03 10:37:00;;;;;;;29.73;19.67;;;3.90;99.90;;;;;;4970892;28;20102;-74
2023/03/03 10:39:26;;;;;;;26.05;20.85;;;4.00;99.90;;;;;;4986975;28;20035;-74
2023/03/03 10:42:04;;;;;;;20.98;18.88;;;4.10;99.90;;;;;;4986880;28;20092;-74
2023/03/03 10:44:32;;;;;;;24.33;21.23;;;4.20;99.90;;;;;;4987722;28;20393;-74
2023/03/03 10:47:26;;;;;;;29.17;19.95;;;4.00;99.90;;;;;;4987867;28;20023;-74
2023/03/03 10:49:51;;;;;;;23.45;20.95;;;4.10;99.90;;;;;;4987821;28;20035;-74
2023/03/03 10:52:36;;;;;;;34.05;23.63;;;3.90;99.90;;;;;;4986538;28;20182;-74
2023/03/03 10:55:33;;;;;;;21.58;17.63;;;4.00;99.90;;;;;;4987989;28;20174;-74
2023/03/03 10:58:19;;;;;;;27.17;18.20;;;4.00;99.90;;;;;;4986074;28;20050;-75
2023/03/03 11:00:57;;;;;;;25.02;18.90;;;4.10;99.90;;;;;;4972300;28;20069;-74
2023/03/03 11:03:57;;;;;;;26.70;20.38;;;4.30;99.90;;;;;;4987512;28;20031;-74
2023/03/03 11:06:37;;;;;;;25.85;18.38;;;4.50;99.90;;;;;;4985685;28;20042;-74
2023/03/03 11:09:09;;;;;;;24.95;18.13;;;4.60;99.90;;;;;;4987276;28;20039;-74
2023/03/03 11:11:47;;;;;;;24.98;18.48;;;4.80;99.90;;;;;;4985063;28;20038;-74
2023/03/03 11:14:35;;;;;;;19.55;15.70;;;5.10;99.90;;;;;;4985060;28;20133;-75
2023/03/03 11:17:13;;;;;;;30.20;19.67;;;5.40;99.90;;;;;;4985623;28;20054;-75
2023/03/03 11:19:57;;;;;;;28.27;19.50;;;5.40;99.90;;;;;;4986741;28;20022;-75
2023/03/03 11:22:32;;;;;;;23.75;17.23;;;5.60;99.90;;;;;;4985854;28;20058;-75
2023/03/03 11:25:36;;;;;;;22.05;17.55;;;5.30;99.90;;;;;;4966742;28;20031;-74
2023/03/03 11:28:24;;;;;;;25.70;15.77;;;5.30;99.90;;;;;;5000402;28;20081;-74
2023/03/03 11:31:08;;;;;;;18.70;15.65;;;5.30;99.90;;;;;;4985732;28;20034;-75
2023/03/03 11:33:46;;;;;;;20.23;14.75;;;5.60;99.90;;;;;;4985618;28;20038;-75
2023/03/03 11:36:35;;;;;;;15.80;12.68;;;5.80;99.90;;;;;;4985814;28;20037;-74
2023/03/03 11:39:09;;;;;;;19.90;16.30;;;6.00;99.90;;;;;;4974911;28;20030;-74
2023/03/03 11:42:00;;;;;;;19.08;13.63;;;6.00;99.90;;;;;;4984765;28;20023;-75
2023/03/03 11:44:35;;;;;;;19.83;16.50;;;6.20;99.90;;;;;;4985722;28;20035;-75
2023/03/03 11:47:25;;;;;;;19.27;12.85;;;5.90;99.90;;;;;;5001687;28;20107;-75
2023/03/03 11:50:09;;;;;;;;;;;5.90;99.90;;;;;;4985837;28;20510;-72
2023/03/03 11:53:02;;;;;;;19.17;16.25;;;6.10;99.90;;;;;;4974955;28;19914;-75
2023/03/03 11:55:39;;;;;;;19.75;16.23;;;6.30;99.90;;;;;;4986340;28;20031;-75
2023/03/03 11:58:16;;;;;;;16.67;15.10;;;6.20;99.90;;;;;;4985566;28;20039;-75
2023/03/03 12:01:14;;;;;;;23.58;15.43;;;6.40;99.90;;;;;;4984899;28;20050;-75
2023/03/03 12:03:52;;;;;;;19.92;14.10;;;6.70;99.90;;;;;;4985254;28;20106;-76
2023/03/03 12:06:36;;;;;;;16.92;13.57;;;7.00;99.90;;;;;;4986800;28;20039;-75
2023/03/03 12:09:28;;;;;;;17.23;13.48;;;7.20;99.90;;;;;;4986837;28;20053;-75
2023/03/03 12:11:56;;;;;;;18.83;10.95;;;7.00;99.90;;;;;;4985332;28;20027;-75
2023/03/03 12:14:38;;;;;;;17.08;13.77;;;7.10;99.90;;;;;;4984934;28;20464;-75
2023/03/03 12:17:33;;;;;;;23.38;14.05;;;7.60;99.90;;;;;;5001680;28;20035;-75
2023/03/03 12:20:01;;;;;;;15.18;13.05;;;7.40;99.90;;;;;;4986531;28;20035;-75
2023/03/03 12:22:34;;;;;;;14.65;12.60;;;7.20;99.90;;;;;;4985610;28;20042;-75
2023/03/03 12:25:23;;;;;;;19.27;13.70;;;7.40;99.90;;;;;;4981705;28;20039;-75
2023/03/03 12:28:16;;;;;;;16.05;13.52;;;7.80;99.90;;;;;;4989884;28;20033;-75
2023/03/03 12:31:00;;;;;;;14.38;12.55;;;7.60;99.90;;;;;;4990463;28;20050;-75
2023/03/03 12:33:38;;;;;;;16.25;13.02;;;7.50;99.90;;;;;;4988982;28;20154;-75
2023/03/03 12:36:21;;;;;;;15.32;10.95;;;7.70;99.90;;;;;;4989837;28;20081;-75
2023/03/03 12:39:16;;;;;;;15.77;11.68;;;8.10;99.90;;;;;;4990338;28;20019;-75
2023/03/03 12:41:54;;;;;;;19.00;12.63;;;8.30;99.90;;;;;;4990249;28;20045;-75
2023/03/03 12:44:20;;;;;;;14.10;11.40;;;8.70;99.90;;;;;;4990164;28;20467;-75
2023/03/03 12:46:56;;;;;;;11.75;9.63;;;8.90;99.90;;;;;;4990217;28;20029;-75
2023/03/03 12:49:47;;;;;;;14.20;9.18;;;9.20;99.90;;;;;;4972614;28;20026;-75
2023/03/03 12:52:39;;;;;;;16.40;12.35;;;9.70;99.90;;;;;;4989455;28;20042;-75
2023/03/03 12:55:10;;;;;;;17.33;10.10;;;9.60;99.90;;;;;;4988930;28;20033;-75
2023/03/03 12:57:54;;;;;;;12.15;9.88;;;9.20;99.90;;;;;;4988593;28;20090;-75
2023/03/03 13:00:25;;;;;;;14.35;9.35;;;9.20;99.90;;;;;;4970474;28;20056;-75
2023/03/03 13:03:04;;;;;;;11.27;9.25;;;9.80;99.90;;;;;;4988472;28;20043;-75